createdAt,value
2022-12-11T00:00:15.633Z,51.38
2022-12-11T00:02:42.192Z,45.05
2022-12-11T00:05:09.295Z,49.95
2022-12-11T00:07:36.048Z,47.88
2022-12-11T00:10:02.987Z,47.70
2022-12-11T00:12:30.654Z,55.53
2022-12-11T00:14:57.303Z,56.75
2022-12-11T00:17:23.871Z,48.80
2022-12-11T00:19:50.327Z,55.33
2022-12-11T00:22:17.038Z,56.30
2022-12-11T00:24:43.465Z,58.67
2022-12-11T00:27:09.968Z,50.05
2022-12-11T00:29:36.450Z,64.47
2022-12-11T00:32:02.923Z,51.80
2022-12-11T00:34:30.152Z,55.03
2022-12-11T00:36:56.763Z,51.42
2022-12-11T00:39:23.228Z,48.90
2022-12-11T00:41:49.776Z,54.15
2022-12-11T00:44:16.303Z,52.08
2022-12-11T00:46:42.795Z,42.72
2022-12-11T00:49:09.371Z,49.28
2022-12-11T00:51:35.846Z,52.30
2022-12-11T00:54:03.274Z,48.55
2022-12-11T00:56:29.959Z,51.15
2022-12-11T00:58:56.483Z,54.53
2022-12-11T01:01:25.345Z,53.20
2022-12-11T01:03:53.619Z,47.90
2022-12-11T01:06:23.041Z,54.15
2022-12-11T01:09:09.633Z,53.03
2022-12-11T01:11:36.732Z,60.92
2022-12-11T01:14:03.999Z,43.65
2022-12-11T01:16:30.551Z,53.13
2022-12-11T01:18:57.836Z,53.97
2022-12-11T01:21:24.383Z,50.03
2022-12-11T01:23:51.644Z,58.38
2022-12-11T01:26:18.638Z,49.05
2022-12-11T01:28:45.671Z,52.97
2022-12-11T01:31:14.511Z,53.35
2022-12-11T01:33:41.491Z,56.42
2022-12-11T01:36:26.227Z,51.45
2022-12-11T01:38:54.386Z,52.05
2022-12-11T01:41:21.517Z,53.17
2022-12-11T01:44:15.450Z,65.43
2022-12-11T01:46:43.171Z,61.33
2022-12-11T01:49:13.792Z,56.05
2022-12-11T01:51:51.702Z,51.00
2022-12-11T01:54:20.167Z,50.60
2022-12-11T01:56:49.211Z,56.72
2022-12-11T01:59:19.900Z,59.20
2022-12-11T02:01:54.715Z,58.05
2022-12-11T02:04:21.599Z,57.70
2022-12-11T02:06:51.848Z,55.78
2022-12-11T02:09:29.979Z,51.00
2022-12-11T02:12:25.447Z,49.75
2022-12-11T02:15:33.391Z,46.55
2022-12-11T02:18:07.777Z,49.17
2022-12-11T02:20:42.042Z,52.28
2022-12-11T02:23:42.375Z,43.80
2022-12-11T02:26:17.976Z,58.30
2022-12-11T02:28:49.635Z,47.80
2022-12-11T02:31:29.042Z,53.92
2022-12-11T02:34:09.648Z,51.08
2022-12-11T02:36:40.202Z,53.95
2022-12-11T02:39:10.400Z,48.70
2022-12-11T02:41:37.735Z,55.15
2022-12-11T02:44:05.180Z,48.47
2022-12-11T02:46:34.790Z,44.75
2022-12-11T02:49:05.830Z,47.63
2022-12-11T02:51:36.402Z,48.80
2022-12-11T02:54:04.451Z,51.47
2022-12-11T02:56:38.155Z,47.20
2022-12-11T02:59:11.158Z,53.53
2022-12-11T03:01:38.036Z,49.65
2022-12-11T03:04:04.635Z,52.55
2022-12-11T03:06:42.314Z,45.58
2022-12-11T03:09:08.839Z,51.38
2022-12-11T03:11:35.371Z,53.13
2022-12-11T03:14:03.064Z,56.63
2022-12-11T03:16:42.938Z,43.72
2022-12-11T03:19:13.050Z,40.53
2022-12-11T03:21:49.183Z,45.92
2022-12-11T03:24:38.366Z,46.17
2022-12-11T03:27:29.362Z,40.90
2022-12-11T03:30:02.223Z,43.83
2022-12-11T03:32:38.603Z,46.05
2022-12-11T03:35:14.867Z,41.03
2022-12-11T03:37:44.684Z,43.05
2022-12-11T03:40:16.207Z,38.30
2022-12-11T03:42:45.831Z,38.90
2022-12-11T03:45:14.317Z,42.35
2022-12-11T03:47:43.283Z,42.25
2022-12-11T03:50:12.342Z,42.53
2022-12-11T03:52:45.809Z,40.63
2022-12-11T03:55:14.980Z,38.13
2022-12-11T03:57:41.595Z,40.10
2022-12-11T04:00:12.197Z,37.90
2022-12-11T04:02:38.968Z,44.85
2022-12-11T04:05:05.967Z,39.40
2022-12-11T04:07:32.451Z,42.80
2022-12-11T04:09:59.034Z,37.03
2022-12-11T04:12:25.761Z,35.72
2022-12-11T04:15:04.328Z,34.92
2022-12-11T04:17:54.811Z,33.70
2022-12-11T04:20:40.361Z,39.65
2022-12-11T04:23:30.815Z,35.55
2022-12-11T04:26:15.897Z,40.70
2022-12-11T04:28:43.870Z,35.28
2022-12-11T04:31:20.050Z,34.97
2022-12-11T04:33:47.239Z,33.72
2022-12-11T04:36:13.968Z,34.50
2022-12-11T04:38:40.703Z,33.17
2022-12-11T04:41:12.012Z,25.02
2022-12-11T04:43:39.656Z,35.20
2022-12-11T04:46:17.357Z,30.05
2022-12-11T04:48:44.747Z,29.52
2022-12-11T04:51:11.652Z,27.83
2022-12-11T04:53:38.503Z,32.80
2022-12-11T04:56:06.426Z,31.33
2022-12-11T04:58:33.092Z,28.80
2022-12-11T05:00:59.570Z,31.77
2022-12-11T05:03:26.166Z,28.92
2022-12-11T05:05:53.795Z,27.85
2022-12-11T05:08:21.264Z,31.95
2022-12-11T05:11:03.411Z,27.77
2022-12-11T05:13:30.763Z,25.45
2022-12-11T05:15:58.297Z,28.70
2022-12-11T05:18:25.403Z,26.80
2022-12-11T05:21:00.330Z,26.27
2022-12-11T05:23:27.269Z,29.25
2022-12-11T05:25:58.759Z,27.85
2022-12-11T05:28:26.680Z,26.33
2022-12-11T05:31:05.019Z,29.52
2022-12-11T05:33:32.197Z,25.50
2022-12-11T05:35:58.841Z,27.02
2022-12-11T05:38:25.488Z,24.35
2022-12-11T05:41:07.205Z,25.73
2022-12-11T05:43:35.620Z,26.63
2022-12-11T05:46:10.197Z,28.15
2022-12-11T05:48:37.897Z,29.65
2022-12-11T05:51:04.999Z,25.77
2022-12-11T05:53:31.702Z,27.38
2022-12-11T05:56:03.152Z,22.80
2022-12-11T05:58:30.224Z,26.92
2022-12-11T06:00:56.726Z,25.73
2022-12-11T06:03:23.187Z,29.00
2022-12-11T06:05:49.659Z,26.50
2022-12-11T06:08:16.212Z,29.67
2022-12-11T06:10:46.988Z,23.67
2022-12-11T06:13:14.069Z,25.95
2022-12-11T06:15:40.884Z,25.40
2022-12-11T06:18:07.450Z,23.13
2022-12-11T06:20:35.251Z,27.88
2022-12-11T06:23:02.372Z,28.08
2022-12-11T06:25:29.714Z,25.60
2022-12-11T06:27:56.704Z,31.50
2022-12-11T06:30:23.512Z,33.35
2022-12-11T06:33:05.340Z,27.80
2022-12-11T06:35:31.846Z,43.00
2022-12-11T06:37:58.963Z,31.25
2022-12-11T06:40:25.496Z,37.55
2022-12-11T06:42:51.993Z,35.08
2022-12-11T06:45:18.469Z,43.30
2022-12-11T06:47:44.998Z,31.50
2022-12-11T06:50:11.569Z,32.10
2022-12-11T06:52:38.107Z,33.70
2022-12-11T06:55:05.116Z,28.42
2022-12-11T06:57:31.578Z,30.23
2022-12-11T06:59:58.067Z,30.95
2022-12-11T07:02:24.592Z,31.98
2022-12-11T07:04:55.083Z,33.85
2022-12-11T07:07:21.907Z,34.03
2022-12-11T07:09:48.429Z,35.35
2022-12-11T07:12:14.903Z,35.03
2022-12-11T07:14:41.377Z,36.42
2022-12-11T07:17:07.935Z,35.85
2022-12-11T07:19:34.559Z,39.17
2022-12-11T07:22:01.031Z,32.83
2022-12-11T07:24:27.703Z,34.17
2022-12-11T07:26:54.226Z,33.53
2022-12-11T07:29:20.700Z,39.40
2022-12-11T07:31:47.319Z,33.80
2022-12-11T07:34:14.149Z,33.50
2022-12-11T07:36:41.091Z,34.05
2022-12-11T07:39:09.000Z,35.45
2022-12-11T07:41:35.718Z,40.42
2022-12-11T07:44:02.942Z,35.53
2022-12-11T07:46:31.759Z,31.30
2022-12-11T07:49:00.834Z,30.92
2022-12-11T07:51:30.535Z,29.77
2022-12-11T07:54:02.544Z,30.63
2022-12-11T07:56:29.834Z,34.28
2022-12-11T07:59:00.391Z,32.17
2022-12-11T08:01:28.911Z,30.27
2022-12-11T08:03:55.776Z,24.25
2022-12-11T08:06:28.660Z,32.30
2022-12-11T08:08:56.597Z,32.47
2022-12-11T08:11:23.689Z,32.60
2022-12-11T08:13:50.301Z,30.00
2022-12-11T08:16:17.683Z,30.20
2022-12-11T08:18:45.712Z,30.10
2022-12-11T08:21:26.089Z,34.60
2022-12-11T08:23:53.662Z,31.23
2022-12-11T08:26:31.631Z,30.48
2022-12-11T08:28:59.315Z,30.25
2022-12-11T08:31:29.027Z,28.33
2022-12-11T08:33:56.903Z,35.88
2022-12-11T08:36:24.771Z,32.55
2022-12-11T08:38:52.045Z,30.67
2022-12-11T08:41:22.073Z,30.55
2022-12-11T08:43:48.836Z,31.58
2022-12-11T08:46:16.118Z,32.72
2022-12-11T08:48:43.354Z,30.42
2022-12-11T08:51:15.659Z,29.88
2022-12-11T08:53:42.802Z,27.33
2022-12-11T08:56:12.574Z,31.15
2022-12-11T08:58:39.097Z,27.10
2022-12-11T09:01:14.187Z,28.15
2022-12-11T09:03:45.306Z,23.70
2022-12-11T09:06:15.079Z,26.65
2022-12-11T09:08:46.008Z,25.15
2022-12-11T09:11:16.555Z,27.38
2022-12-11T09:13:43.676Z,31.15
2022-12-11T09:16:13.205Z,36.35
2022-12-11T09:18:40.599Z,32.42
2022-12-11T09:21:16.353Z,30.55
2022-12-11T09:23:43.425Z,30.45
2022-12-11T09:26:14.507Z,28.75
2022-12-11T09:28:46.301Z,33.35
2022-12-11T09:31:18.073Z,31.65
2022-12-11T09:33:44.937Z,29.58
2022-12-11T09:36:12.179Z,45.03
2022-12-11T09:38:39.037Z,60.10
2022-12-11T09:41:20.899Z,45.42
2022-12-11T09:44:01.653Z,36.15
2022-12-11T09:46:33.769Z,37.53
2022-12-11T09:49:03.396Z,28.45
2022-12-11T09:51:50.262Z,35.97
2022-12-11T09:54:19.612Z,33.15
2022-12-11T09:59:42.606Z,29.15
2022-12-11T10:02:18.995Z,35.67
2022-12-11T10:05:15.735Z,35.63
2022-12-11T10:07:48.143Z,38.20
2022-12-11T10:10:14.652Z,26.92
2022-12-11T10:12:59.820Z,33.35
2022-12-11T10:15:43.172Z,32.58
2022-12-11T10:18:36.473Z,30.35
2022-12-11T10:21:04.210Z,29.40
2022-12-11T10:23:54.039Z,29.63
2022-12-11T10:26:25.072Z,26.58
2022-12-11T10:28:51.993Z,33.30
2022-12-11T10:31:22.950Z,31.83
2022-12-11T10:33:54.652Z,30.10
2022-12-11T10:36:28.052Z,25.15
2022-12-11T10:38:55.132Z,30.27
2022-12-11T10:41:24.687Z,30.00
2022-12-11T10:43:53.276Z,29.10
2022-12-11T10:46:24.340Z,26.15
2022-12-11T10:48:54.817Z,28.80
2022-12-11T10:51:24.879Z,27.27
2022-12-11T10:53:58.149Z,25.08
2022-12-11T10:56:29.637Z,23.83
2022-12-11T11:01:35.897Z,29.63
2022-12-11T11:04:06.935Z,24.15
2022-12-11T11:06:34.034Z,32.20
2022-12-11T11:10:01.221Z,24.42
2022-12-11T11:12:27.895Z,29.25
2022-12-11T11:15:44.445Z,22.90
2022-12-11T11:18:26.408Z,21.17
2022-12-11T11:20:53.756Z,20.77
2022-12-11T11:23:24.613Z,23.98
2022-12-11T11:25:58.039Z,18.45
2022-12-11T11:28:30.822Z,22.42
2022-12-11T11:31:02.549Z,24.08
2022-12-11T11:33:31.418Z,21.30
2022-12-11T11:36:03.934Z,30.23
2022-12-11T11:38:58.890Z,27.23
2022-12-11T11:41:31.665Z,22.48
2022-12-11T11:44:03.259Z,24.00
2022-12-11T11:46:44.593Z,22.17
2022-12-11T11:49:23.256Z,22.35
2022-12-11T11:52:03.527Z,22.13
2022-12-11T11:54:37.870Z,21.00
2022-12-11T11:58:02.422Z,20.17
2022-12-11T12:00:33.557Z,21.35
2022-12-11T12:03:13.905Z,19.13
2022-12-11T12:06:10.945Z,20.77
2022-12-11T12:08:57.901Z,19.70
2022-12-11T12:11:52.846Z,22.08
2022-12-11T12:14:55.260Z,23.63
2022-12-11T12:17:36.041Z,20.55
2022-12-11T12:20:23.347Z,22.63
2022-12-11T12:23:46.519Z,20.77
2022-12-11T12:26:26.721Z,20.13
2022-12-11T12:29:18.407Z,18.17
2022-12-11T12:32:02.326Z,21.55
2022-12-11T12:34:42.035Z,31.15
2022-12-11T12:37:15.008Z,20.65
2022-12-11T12:40:03.359Z,20.00
2022-12-11T12:42:51.147Z,20.17
2022-12-11T12:45:22.604Z,25.33
2022-12-11T12:47:53.381Z,19.60
2022-12-11T12:50:23.694Z,20.00
2022-12-11T12:52:53.133Z,20.33
2022-12-11T12:55:24.335Z,35.67
2022-12-11T12:58:12.958Z,25.63
2022-12-11T13:00:42.283Z,65.72
2022-12-11T13:03:31.600Z,32.85
2022-12-11T13:06:11.745Z,26.40
2022-12-11T13:08:46.842Z,23.20
2022-12-11T13:11:16.177Z,27.85
2022-12-11T13:16:21.147Z,22.70
2022-12-11T13:18:48.468Z,24.63
2022-12-11T13:21:38.127Z,24.27
2022-12-11T13:24:20.016Z,22.40
2022-12-11T13:26:48.001Z,22.70
2022-12-11T13:29:32.429Z,36.83
2022-12-11T13:32:21.329Z,28.30
2022-12-11T13:34:55.448Z,33.35
2022-12-11T13:37:24.566Z,24.42
2022-12-11T13:39:52.347Z,24.67
2022-12-11T13:42:27.712Z,25.02
2022-12-11T13:44:54.508Z,25.38
2022-12-11T13:47:21.722Z,26.23
2022-12-11T13:49:56.734Z,27.13
2022-12-11T13:55:34.720Z,33.47
2022-12-11T13:58:01.464Z,30.02
2022-12-11T14:00:32.910Z,28.38
2022-12-11T14:03:04.735Z,30.48
2022-12-11T14:05:31.551Z,27.00
2022-12-11T14:08:02.792Z,32.10
2022-12-11T14:10:32.819Z,30.45
2022-12-11T14:12:59.270Z,30.50
2022-12-11T14:15:28.028Z,29.20
2022-12-11T14:17:55.539Z,26.40
2022-12-11T14:20:25.442Z,38.55
2022-12-11T14:22:52.038Z,27.42
2022-12-11T14:25:21.753Z,33.72
2022-12-11T14:27:50.907Z,29.98
2022-12-11T14:30:25.893Z,32.75
2022-12-11T14:32:58.271Z,32.03
2022-12-11T14:35:27.575Z,33.65
2022-12-11T14:40:27.412Z,31.13
2022-12-11T14:43:01.119Z,33.65
2022-12-11T14:45:39.322Z,33.58
2022-12-11T14:48:22.162Z,27.98
2022-12-11T14:50:52.770Z,30.58
2022-12-11T14:53:31.312Z,27.30
2022-12-11T14:56:02.910Z,29.40
2022-12-11T14:58:30.619Z,32.47
2022-12-11T15:01:06.398Z,37.10
2022-12-11T15:03:35.551Z,30.55
2022-12-11T15:06:03.575Z,36.53
2022-12-11T15:08:33.575Z,38.35
2022-12-11T15:11:18.877Z,53.92
2022-12-11T15:13:51.391Z,32.55
2022-12-11T15:16:18.914Z,27.20
2022-12-11T15:18:50.962Z,34.83
2022-12-11T15:21:39.228Z,34.67
2022-12-11T15:24:07.086Z,31.05
2022-12-11T15:26:37.398Z,26.88
2022-12-11T15:29:24.830Z,31.95
2022-12-11T15:32:10.581Z,30.38
2022-12-11T15:34:46.219Z,32.22
2022-12-11T15:37:33.087Z,32.40
2022-12-11T15:40:01.682Z,29.95
2022-12-11T15:42:39.763Z,34.33
2022-12-11T15:45:09.174Z,30.13
2022-12-11T15:47:35.918Z,33.15
2022-12-11T15:50:15.423Z,33.05
2022-12-11T15:52:41.850Z,35.42
2022-12-11T15:55:09.231Z,34.35
2022-12-11T15:57:36.906Z,31.15
2022-12-11T16:00:06.495Z,27.90
2022-12-11T16:02:33.536Z,27.50
2022-12-11T16:04:59.992Z,27.45
2022-12-11T16:07:26.691Z,29.10
2022-12-11T16:09:53.615Z,35.78
2022-12-11T16:12:21.561Z,34.55
2022-12-11T16:14:48.124Z,32.33
2022-12-11T16:17:15.555Z,33.88
2022-12-11T16:19:43.648Z,37.85
2022-12-11T16:22:12.374Z,32.58
2022-12-11T16:24:40.214Z,34.42
2022-12-11T16:27:07.814Z,34.40
2022-12-11T16:29:35.883Z,30.35
2022-12-11T16:32:02.386Z,28.75
2022-12-11T16:34:28.890Z,30.33
2022-12-11T16:36:58.088Z,29.92
2022-12-11T16:39:25.061Z,31.23
2022-12-11T16:41:51.530Z,31.42
2022-12-11T16:44:20.656Z,32.33
2022-12-11T16:46:47.864Z,43.65
2022-12-11T16:49:14.757Z,46.88
2022-12-11T16:51:41.952Z,36.35
2022-12-11T16:54:09.252Z,31.42
2022-12-11T16:56:36.308Z,27.40
2022-12-11T16:59:03.487Z,24.60
2022-12-11T17:01:30.425Z,25.08
2022-12-11T17:03:57.263Z,29.17
2022-12-11T17:06:23.931Z,28.52
2022-12-11T17:08:50.518Z,28.15
2022-12-11T17:11:20.998Z,61.03
2022-12-11T17:13:48.027Z,32.88
2022-12-11T17:16:16.234Z,38.10
2022-12-11T17:18:43.564Z,29.25
2022-12-11T17:21:15.570Z,29.23
2022-12-11T17:23:42.709Z,29.85
2022-12-11T17:26:09.779Z,28.85
2022-12-11T17:28:37.270Z,47.72
2022-12-11T17:31:08.186Z,64.43
2022-12-11T17:33:35.405Z,36.00
2022-12-11T17:36:04.345Z,24.42
2022-12-11T17:38:31.405Z,25.60
2022-12-11T17:40:58.298Z,27.55
2022-12-11T17:43:25.019Z,24.08
2022-12-11T17:45:55.339Z,24.70
2022-12-11T17:48:24.941Z,27.40
2022-12-11T17:50:52.745Z,23.98
2022-12-11T17:53:21.079Z,24.33
2022-12-11T17:55:48.502Z,27.13
2022-12-11T17:58:17.475Z,28.35
2022-12-11T18:00:46.189Z,23.52
2022-12-11T18:03:13.240Z,24.80
2022-12-11T18:05:47.678Z,25.02
2022-12-11T18:08:17.305Z,25.65
2022-12-11T18:10:44.022Z,27.80
2022-12-11T18:13:12.172Z,30.52
2022-12-11T18:15:39.637Z,29.52
2022-12-11T18:18:07.187Z,19.00
2022-12-11T18:20:35.118Z,32.67
2022-12-11T18:23:02.006Z,28.42
2022-12-11T18:25:28.678Z,26.55
2022-12-11T18:27:55.495Z,26.13
2022-12-11T18:30:22.802Z,26.42
2022-12-11T18:32:49.864Z,27.33
2022-12-11T18:35:17.399Z,23.33
2022-12-11T18:37:45.193Z,30.83
2022-12-11T18:40:14.506Z,30.13
2022-12-11T18:42:41.210Z,30.00
2022-12-11T18:45:08.362Z,27.63
2022-12-11T18:47:35.453Z,22.95
2022-12-11T18:50:07.328Z,28.67
2022-12-11T18:52:34.927Z,26.23
2022-12-11T18:55:01.652Z,24.77
2022-12-11T18:57:28.406Z,25.52
2022-12-11T18:59:55.156Z,21.88
2022-12-11T19:02:22.219Z,25.33
2022-12-11T19:04:48.880Z,20.00
2022-12-11T19:07:15.547Z,23.30
2022-12-11T19:09:47.651Z,21.77
2022-12-11T19:12:14.741Z,26.35
2022-12-11T19:14:41.431Z,29.20
2022-12-11T19:17:07.889Z,24.42
2022-12-11T19:19:35.930Z,21.95
2022-12-11T19:22:03.057Z,21.17
2022-12-11T19:24:29.749Z,18.83
2022-12-11T19:26:56.378Z,20.95
2022-12-11T19:29:27.775Z,18.88
2022-12-11T19:31:55.587Z,21.58
2022-12-11T19:34:23.561Z,20.77
2022-12-11T19:36:50.256Z,23.48
2022-12-11T19:39:17.561Z,20.50
2022-12-11T19:41:44.023Z,21.33
2022-12-11T19:44:10.555Z,20.35
2022-12-11T19:46:38.248Z,21.67
2022-12-11T19:49:05.525Z,21.25
2022-12-11T19:51:36.390Z,21.35
2022-12-11T19:54:03.097Z,21.40
2022-12-11T19:56:29.985Z,21.00
2022-12-11T19:58:57.047Z,19.33
2022-12-11T20:01:30.907Z,19.23
2022-12-11T20:04:03.477Z,20.52
2022-12-11T20:06:31.734Z,17.65
2022-12-11T20:08:58.400Z,25.02
2022-12-11T20:11:25.440Z,24.70
2022-12-11T20:13:52.071Z,23.52
2022-12-11T20:16:28.923Z,18.88
2022-12-11T20:19:08.312Z,19.38
2022-12-11T20:21:34.851Z,21.50
2022-12-11T20:24:01.355Z,22.75
2022-12-11T20:26:29.507Z,18.67
2022-12-11T20:28:57.138Z,21.65
2022-12-11T20:31:26.090Z,20.83
2022-12-11T20:33:53.295Z,23.20
2022-12-11T20:36:21.731Z,38.97
2022-12-11T20:38:49.144Z,26.98
2022-12-11T20:41:19.398Z,23.48
2022-12-11T20:43:46.983Z,20.63
2022-12-11T20:46:15.769Z,22.35
2022-12-11T20:48:44.556Z,24.25
2022-12-11T20:51:13.925Z,19.00
2022-12-11T20:56:19.562Z,20.20
2022-12-11T20:58:46.420Z,17.77
2022-12-11T21:01:18.643Z,22.02
2022-12-11T21:03:45.219Z,18.77
2022-12-11T21:06:25.715Z,21.40
2022-12-11T21:08:53.375Z,21.23
2022-12-11T21:11:20.325Z,20.25
2022-12-11T21:13:50.470Z,22.38
2022-12-11T21:16:18.250Z,18.80
2022-12-11T21:18:46.555Z,21.48
2022-12-11T21:21:14.142Z,20.13
2022-12-11T21:23:40.946Z,17.95
2022-12-11T21:26:07.546Z,19.95
2022-12-11T21:28:35.715Z,20.25
2022-12-11T21:31:06.364Z,21.55
2022-12-11T21:33:35.973Z,19.15
2022-12-11T21:36:05.715Z,20.65
2022-12-11T21:38:33.401Z,24.33
2022-12-11T21:41:10.568Z,20.52
2022-12-11T21:43:43.358Z,21.00
2022-12-11T21:46:27.685Z,20.08
2022-12-11T21:48:54.432Z,20.65
2022-12-11T21:51:28.615Z,24.52
2022-12-11T21:53:57.564Z,18.85
2022-12-11T21:56:25.546Z,24.23
2022-12-11T21:58:53.663Z,19.63
2022-12-11T22:01:30.625Z,21.15
2022-12-11T22:03:59.255Z,21.27
2022-12-11T22:06:25.846Z,22.08
2022-12-11T22:08:52.747Z,23.27
2022-12-11T22:11:23.131Z,25.70
2022-12-11T22:13:50.085Z,23.58
2022-12-11T22:16:16.722Z,23.30
2022-12-11T22:18:43.534Z,20.58
2022-12-11T22:21:10.596Z,20.10
2022-12-11T22:23:38.247Z,21.65
2022-12-11T22:26:06.760Z,23.20
2022-12-11T22:28:33.228Z,20.45
2022-12-11T22:31:00.099Z,18.60
2022-12-11T22:33:27.291Z,19.13
2022-12-11T22:35:58.030Z,19.30
2022-12-11T22:38:24.998Z,20.77
2022-12-11T22:40:52.771Z,19.85
2022-12-11T22:43:19.907Z,21.63
2022-12-11T22:45:46.582Z,25.23
2022-12-11T22:48:13.115Z,23.95
2022-12-11T22:50:40.082Z,24.02
2022-12-11T22:53:06.700Z,19.05
2022-12-11T22:55:34.051Z,20.05
2022-12-11T22:58:00.499Z,19.88
2022-12-11T23:00:26.977Z,18.98
2022-12-11T23:02:53.610Z,19.40
2022-12-11T23:05:20.097Z,21.73
2022-12-11T23:07:46.702Z,19.55
2022-12-11T23:10:16.975Z,23.65
2022-12-11T23:12:43.457Z,21.65
2022-12-11T23:15:11.231Z,19.27
2022-12-11T23:17:37.901Z,20.60
2022-12-11T23:20:05.887Z,21.17
2022-12-11T23:22:33.291Z,21.92
2022-12-11T23:24:59.749Z,23.30
2022-12-11T23:27:26.197Z,20.88
2022-12-11T23:29:52.677Z,22.25
2022-12-11T23:32:19.221Z,24.30
2022-12-11T23:34:45.706Z,23.17
2022-12-11T23:37:12.448Z,22.17
2022-12-11T23:39:38.982Z,21.27
2022-12-11T23:42:05.713Z,22.35
2022-12-11T23:44:32.207Z,20.65
2022-12-11T23:46:58.680Z,23.15
2022-12-11T23:49:25.167Z,20.85
2022-12-11T23:51:54.259Z,22.67
2022-12-11T23:54:20.727Z,24.38
2022-12-11T23:56:47.643Z,24.08
2022-12-11T23:59:15.122Z,24.05
